Time;durP1;ratioP1;P1;durP2;ratioP2;P2;SDS_P1;SDS_P2;PMS_P1;PMS_P2;Temp;Humidity;BMP_temperature;BMP_pressure;BME280_temperature;BME280_humidity;BME280_pressure;Samples;Min_cycle;Max_cycle;Signal;HPM_P1;HPM_P2
2022/07/04 00:01:27;;;;;;;3.58;0.73;;;;;;;;;;5323414;28;20266;-67
2022/07/04 00:03:58;;;;;;;4.72;0.70;;;;;;;;;;5323824;28;20386;-67
2022/07/04 00:06:29;;;;;;;3.90;0.82;;;;;;;;;;5323816;28;20054;-67
2022/07/04 00:09:00;;;;;;;2.53;0.70;;;;;;;;;;5323687;28;20094;-67
2022/07/04 00:11:32;;;;;;;4.00;0.60;;;;;;;;;;5323339;28;20024;-67
2022/07/04 00:14:03;;;;;;;2.80;0.77;;;;;;;;;;5323798;28;20704;-67
2022/07/04 00:16:34;;;;;;;4.38;1.00;;;;;;;;;;5323609;28;20817;-67
2022/07/04 00:19:05;;;;;;;2.60;0.68;;;;;;;;;;5323087;28;20077;-67
2022/07/04 00:21:36;;;;;;;2.50;0.70;;;;;;;;;;5324021;28;20085;-67
2022/07/04 00:24:07;;;;;;;2.03;0.70;;;;;;;;;;5323724;28;20269;-69
2022/07/04 00:26:39;;;;;;;2.80;0.67;;;;;;;;;;5323429;28;20348;-67
2022/07/04 00:29:10;;;;;;;3.53;0.70;;;;;;;;;;5323765;28;20273;-67
2022/07/04 00:31:41;;;;;;;3.20;0.80;;;;;;;;;;5323589;28;20053;-67
2022/07/04 00:34:13;;;;;;;2.58;0.60;;;;;;;;;;5323295;28;20027;-67
2022/07/04 00:36:44;;;;;;;1.92;0.70;;;;;;;;;;5323550;28;20042;-67
2022/07/04 00:39:15;;;;;;;4.00;0.80;;;;;;;;;;5322587;28;20024;-67
2022/07/04 00:41:46;;;;;;;2.70;0.90;;;;;;;;;;5323671;28;20367;-67
2022/07/04 00:44:17;;;;;;;4.35;1.15;;;;;;;;;;5323258;28;20019;-67
2022/07/04 00:46:49;;;;;;;2.38;0.90;;;;;;;;;;5323257;28;20020;-67
2022/07/04 00:49:20;;;;;;;4.75;1.00;;;;;;;;;;5323382;28;20027;-67
2022/07/04 00:51:51;;;;;;;1.73;0.80;;;;;;;;;;5323748;28;20020;-67
2022/07/04 00:54:26;;;;;;;4.28;0.93;;;;;;;;;;5322565;28;20423;-67
2022/07/04 00:56:58;;;;;;;2.38;0.93;;;;;;;;;;5324061;28;20041;-67
2022/07/04 00:59:29;;;;;;;2.85;1.25;;;;;;;;;;5323172;28;20098;-67
2022/07/04 01:02:00;;;;;;;3.35;0.80;;;;;;;;;;5322824;28;20031;-68
2022/07/04 01:04:31;;;;;;;2.28;0.88;;;;;;;;;;5323355;28;20378;-67
2022/07/04 01:07:03;;;;;;;3.83;0.83;;;;;;;;;;5323353;28;20043;-68
2022/07/04 01:09:35;;;;;;;1.98;0.75;;;;;;;;;;5322730;28;20641;-67
2022/07/04 01:12:06;;;;;;;3.33;1.00;;;;;;;;;;5323269;28;20031;-67
2022/07/04 01:14:38;;;;;;;2.92;1.23;;;;;;;;;;5322629;28;20375;-67
2022/07/04 01:17:09;;;;;;;2.22;0.88;;;;;;;;;;5323202;28;20443;-67
2022/07/04 01:19:40;;;;;;;3.25;0.80;;;;;;;;;;5322938;28;20414;-67
2022/07/04 01:22:12;;;;;;;3.87;0.93;;;;;;;;;;5322794;28;20016;-67
2022/07/04 01:24:43;;;;;;;3.72;0.95;;;;;;;;;;5323340;28;20264;-67
2022/07/04 01:27:14;;;;;;;3.10;1.47;;;;;;;;;;5323114;28;20039;-67
2022/07/04 01:29:45;;;;;;;2.35;0.90;;;;;;;;;;5322561;28;20261;-67
2022/07/04 01:32:17;;;;;;;2.42;0.90;;;;;;;;;;5323061;28;20401;-67
2022/07/04 01:34:48;;;;;;;3.05;1.50;;;;;;;;;;5323051;28;20024;-67
2022/07/04 01:37:19;;;;;;;4.20;0.90;;;;;;;;;;5322468;28;20094;-68
2022/07/04 01:39:50;;;;;;;2.63;0.73;;;;;;;;;;5323134;28;20028;-67
2022/07/04 01:42:21;;;;;;;2.95;1.02;;;;;;;;;;5322102;28;20435;-67
2022/07/04 01:44:53;;;;;;;3.53;1.00;;;;;;;;;;5323411;28;20110;-67
2022/07/04 01:47:24;;;;;;;4.17;1.03;;;;;;;;;;5322403;28;20257;-67
2022/07/04 01:49:55;;;;;;;2.42;0.90;;;;;;;;;;5323245;28;20257;-67
2022/07/04 01:52:26;;;;;;;1.53;1.00;;;;;;;;;;5326482;28;20363;-67
2022/07/04 01:54:58;;;;;;;2.20;0.82;;;;;;;;;;5326711;28;20431;-67
2022/07/04 01:57:29;;;;;;;3.72;1.10;;;;;;;;;;5326025;28;20446;-67
2022/07/04 02:02:50;;;;;;;3.55;1.00;;;;;;;;;;5326799;28;20352;-67
2022/07/04 02:05:22;;;;;;;3.75;1.20;;;;;;;;;;5325578;28;20517;-67
2022/07/04 02:07:53;;;;;;;2.30;0.80;;;;;;;;;;5326689;28;20030;-67
2022/07/04 02:10:24;;;;;;;2.83;1.20;;;;;;;;;;5326320;28;20038;-67
2022/07/04 02:13:01;;;;;;;3.05;1.35;;;;;;;;;;5326165;28;20102;-67
2022/07/04 02:15:36;;;;;;;2.55;1.30;;;;;;;;;;5326040;28;20027;-67
2022/07/04 02:18:08;;;;;;;6.80;1.10;;;;;;;;;;5325749;28;20031;-67
2022/07/04 02:20:39;;;;;;;2.45;1.20;;;;;;;;;;5326383;28;20057;-67
2022/07/04 02:23:10;;;;;;;6.90;1.55;;;;;;;;;;5325819;28;20016;-67
2022/07/04 02:25:41;;;;;;;3.33;1.60;;;;;;;;;;5325422;28;20047;-68
2022/07/04 02:28:13;;;;;;;3.00;1.50;;;;;;;;;;5325982;28;20250;-67
2022/07/04 02:30:44;;;;;;;2.70;1.10;;;;;;;;;;5325687;28;20852;-68
2022/07/04 02:33:15;;;;;;;6.80;1.50;;;;;;;;;;5325633;28;20019;-68
2022/07/04 02:35:46;;;;;;;6.15;1.63;;;;;;;;;;5325726;28;20411;-67
2022/07/04 02:38:17;;;;;;;5.32;1.75;;;;;;;;;;5325828;28;20019;-67
2022/07/04 02:40:48;;;;;;;6.18;1.50;;;;;;;;;;5325009;28;20195;-67
2022/07/04 02:43:20;;;;;;;5.22;1.25;;;;;;;;;;5325083;28;20546;-67
2022/07/04 02:45:51;;;;;;;5.47;2.13;;;;;;;;;;5325499;28;20752;-67
2022/07/04 02:48:22;;;;;;;4.28;1.73;;;;;;;;;;5325361;28;20031;-68
2022/07/04 02:50:53;;;;;;;6.60;1.73;;;;;;;;;;5325629;28;20020;-67
2022/07/04 02:53:25;;;;;;;2.58;1.52;;;;;;;;;;5324649;28;20384;-67
2022/07/04 02:55:56;;;;;;;3.67;1.60;;;;;;;;;;5325747;28;20036;-67
2022/07/04 02:58:28;;;;;;;4.22;1.67;;;;;;;;;;5325084;28;20297;-67
2022/07/04 03:00:59;;;;;;;4.15;1.77;;;;;;;;;;5324578;28;20318;-67
2022/07/04 03:03:30;;;;;;;5.22;1.67;;;;;;;;;;5325340;28;20462;-67
2022/07/04 03:06:02;;;;;;;3.35;1.67;;;;;;;;;;5324957;28;20015;-67
2022/07/04 03:08:33;;;;;;;3.42;1.60;;;;;;;;;;5324803;28;20057;-67
2022/07/04 03:11:05;;;;;;;3.33;1.85;;;;;;;;;;5325048;28;20016;-68
2022/07/04 03:13:36;;;;;;;2.70;1.25;;;;;;;;;;5325023;28;20041;-68
2022/07/04 03:16:07;;;;;;;4.38;1.52;;;;;;;;;;5324460;28;20379;-67
2022/07/04 03:18:39;;;;;;;4.65;2.10;;;;;;;;;;5324478;28;20119;-67
2022/07/04 03:21:10;;;;;;;3.97;1.70;;;;;;;;;;5324301;28;20532;-68
2022/07/04 03:23:41;;;;;;;10.05;2.45;;;;;;;;;;5324985;28;20023;-67
2022/07/04 03:26:12;;;;;;;4.35;2.00;;;;;;;;;;5324648;28;20041;-67
2022/07/04 03:28:43;;;;;;;3.80;2.22;;;;;;;;;;5324281;28;20094;-68
2022/07/04 03:31:15;;;;;;;4.22;1.80;;;;;;;;;;5324699;28;20263;-67
2022/07/04 03:33:46;;;;;;;7.00;2.13;;;;;;;;;;5324411;28;20530;-68
2022/07/04 03:36:17;;;;;;;4.95;1.70;;;;;;;;;;5324076;28;20710;-67
2022/07/04 03:38:49;;;;;;;6.78;1.80;;;;;;;;;;5324521;28;20016;-67
2022/07/04 03:41:20;;;;;;;3.97;2.03;;;;;;;;;;5324191;28;20036;-68
2022/07/04 03:43:51;;;;;;;4.20;1.67;;;;;;;;;;5324514;28;20260;-67
2022/07/04 03:46:22;;;;;;;3.55;1.63;;;;;;;;;;5324073;28;20272;-67
2022/07/04 03:48:54;;;;;;;2.83;1.50;;;;;;;;;;5324936;28;20113;-67
2022/07/04 03:51:25;;;;;;;4.53;1.48;;;;;;;;;;5323722;28;20264;-67
2022/07/04 03:53:57;;;;;;;4.25;1.38;;;;;;;;;;5324276;28;20027;-68
2022/07/04 03:56:28;;;;;;;5.03;1.70;;;;;;;;;;5323435;28;20451;-67
2022/07/04 03:58:59;;;;;;;5.78;1.98;;;;;;;;;;5324375;28;20016;-67
2022/07/04 04:01:30;;;;;;;4.18;1.73;;;;;;;;;;5324075;28;20047;-68
2022/07/04 04:06:51;;;;;;;5.35;2.33;;;;;;;;;;5324683;28;20428;-67
2022/07/04 04:09:24;;;;;;;3.13;1.48;;;;;;;;;;5323890;28;20016;-68
2022/07/04 04:11:55;;;;;;;6.28;1.80;;;;;;;;;;5323886;28;20823;-67
2022/07/04 04:14:27;;;;;;;6.23;2.17;;;;;;;;;;5322690;28;20118;-68
2022/07/04 04:16:58;;;;;;;5.05;2.00;;;;;;;;;;5324468;28;20370;-67
2022/07/04 04:19:29;;;;;;;4.65;1.95;;;;;;;;;;5322749;28;20048;-67
2022/07/04 04:22:00;;;;;;;4.57;2.17;;;;;;;;;;5323550;28;20104;-67
2022/07/04 04:24:32;;;;;;;3.95;1.67;;;;;;;;;;5323209;28;20724;-67
2022/07/04 04:27:03;;;;;;;6.22;2.03;;;;;;;;;;5323681;28;20030;-68
2022/07/04 04:29:34;;;;;;;5.68;2.63;;;;;;;;;;5323758;28;20084;-67
2022/07/04 04:32:06;;;;;;;5.18;1.80;;;;;;;;;;5323234;28;20022;-68
2022/07/04 04:34:37;;;;;;;5.07;1.73;;;;;;;;;;5323658;28;20099;-67
2022/07/04 04:37:08;;;;;;;6.63;2.00;;;;;;;;;;5323412;28;20035;-68
2022/07/04 04:39:40;;;;;;;3.70;1.77;;;;;;;;;;5322953;28;20054;-67
2022/07/04 04:42:11;;;;;;;3.40;1.35;;;;;;;;;;5323278;28;20107;-68
2022/07/04 04:44:42;;;;;;;2.95;1.73;;;;;;;;;;5323588;28;20501;-68
2022/07/04 04:47:13;;;;;;;7.47;2.20;;;;;;;;;;5322890;28;20012;-67
2022/07/04 04:49:45;;;;;;;7.57;1.95;;;;;;;;;;5323352;28;20380;-67
2022/07/04 04:52:16;;;;;;;6.80;2.13;;;;;;;;;;5322825;28;20018;-68
2022/07/04 04:54:47;;;;;;;5.57;1.40;;;;;;;;;;5323548;28;20076;-67
2022/07/04 04:57:18;;;;;;;6.13;1.50;;;;;;;;;;5323006;28;20019;-68
2022/07/04 04:59:49;;;;;;;6.50;1.70;;;;;;;;;;5323211;28;20272;-68
2022/07/04 05:02:20;;;;;;;4.05;1.60;;;;;;;;;;5323042;28;20102;-68
2022/07/04 05:04:52;;;;;;;4.07;1.53;;;;;;;;;;5323477;28;20280;-68
2022/07/04 05:07:23;;;;;;;6.38;1.63;;;;;;;;;;5322717;28;20262;-68
2022/07/04 05:09:58;;;;;;;6.25;1.60;;;;;;;;;;5323570;28;20112;-68
2022/07/04 05:12:30;;;;;;;3.38;1.77;;;;;;;;;;5323026;28;20424;-68
2022/07/04 05:15:01;;;;;;;4.40;1.92;;;;;;;;;;5322652;28;20024;-68
2022/07/04 05:17:32;;;;;;;6.55;1.55;;;;;;;;;;5323211;28;20061;-68
2022/07/04 05:20:03;;;;;;;4.60;1.77;;;;;;;;;;5323035;28;20071;-69
2022/07/04 05:22:34;;;;;;;9.23;1.98;;;;;;;;;;5322727;28;20262;-69
2022/07/04 05:25:06;;;;;;;5.37;1.37;;;;;;;;;;5325225;28;20024;-68
2022/07/04 05:27:37;;;;;;;4.43;1.65;;;;;;;;;;5326739;28;20399;-68
2022/07/04 05:30:09;;;;;;;6.13;1.60;;;;;;;;;;5327437;28;20022;-68
2022/07/04 05:32:40;;;;;;;5.53;2.03;;;;;;;;;;5326841;28;20027;-68
2022/07/04 05:35:12;;;;;;;6.05;1.48;;;;;;;;;;5326444;28;20024;-69
2022/07/04 05:37:43;;;;;;;5.18;1.35;;;;;;;;;;5327114;28;20027;-68
2022/07/04 05:40:14;;;;;;;8.82;1.75;;;;;;;;;;5326641;28;20020;-68
2022/07/04 05:42:45;;;;;;;7.68;2.03;;;;;;;;;;5326405;28;20031;-67
2022/07/04 05:45:17;;;;;;;7.03;1.90;;;;;;;;;;5326784;28;20398;-68
2022/07/04 05:47:48;;;;;;;5.57;1.80;;;;;;;;;;5326737;28;20356;-67
2022/07/04 05:50:19;;;;;;;5.50;1.38;;;;;;;;;;5325788;28;20027;-67
2022/07/04 05:52:50;;;;;;;6.82;1.95;;;;;;;;;;5326682;28;20023;-67
2022/07/04 05:55:22;;;;;;;7.18;1.65;;;;;;;;;;5326145;28;20428;-67
2022/07/04 05:57:53;;;;;;;4.35;1.52;;;;;;;;;;5326522;28;20466;-66
2022/07/04 06:00:24;;;;;;;5.20;1.70;;;;;;;;;;5325890;28;20080;-67
2022/07/04 06:02:55;;;;;;;4.63;1.75;;;;;;;;;;5326231;28;20458;-67
2022/07/04 06:05:26;;;;;;;6.20;1.55;;;;;;;;;;5326225;28;20027;-66
2022/07/04 06:07:57;;;;;;;5.45;1.60;;;;;;;;;;5326298;28;20016;-66
2022/07/04 06:10:29;;;;;;;6.35;1.90;;;;;;;;;;5325173;28;20513;-66
2022/07/04 06:13:00;;;;;;;4.75;1.67;;;;;;;;;;5326269;28;20836;-67
2022/07/04 06:15:31;;;;;;;6.90;2.20;;;;;;;;;;5321066;28;20027;-67
2022/07/04 06:18:02;;;;;;;4.67;1.30;;;;;;;;;;5324861;28;20764;-68
2022/07/04 06:20:33;;;;;;;6.80;1.43;;;;;;;;;;5325373;28;20701;-67
2022/07/04 06:23:05;;;;;;;4.27;1.27;;;;;;;;;;5325495;28;20254;-67
2022/07/04 06:25:36;;;;;;;5.88;1.15;;;;;;;;;;5325487;28;20346;-67
2022/07/04 06:28:07;;;;;;;5.83;1.27;;;;;;;;;;5325205;28;20107;-67
2022/07/04 06:30:38;;;;;;;5.10;1.10;;;;;;;;;;5325899;28;20262;-67
2022/07/04 06:33:10;;;;;;;5.37;1.07;;;;;;;;;;5325075;28;20042;-67
2022/07/04 06:35:56;;;;;;;5.63;1.15;;;;;;;;;;5324954;28;20305;-67
2022/07/04 06:38:28;;;;;;;5.93;1.30;;;;;;;;;;5324866;28;20020;-68
2022/07/04 06:40:59;;;;;;;5.90;1.25;;;;;;;;;;5325088;28;20012;-68
2022/07/04 06:43:30;;;;;;;6.65;1.10;;;;;;;;;;5324841;28;20436;-67
2022/07/04 06:46:02;;;;;;;4.28;1.20;;;;;;;;;;5325056;28;20497;-68
2022/07/04 06:48:33;;;;;;;5.32;0.80;;;;;;;;;;5325276;28;20793;-67
2022/07/04 06:51:04;;;;;;;7.07;1.00;;;;;;;;;;5325518;28;20015;-68
2022/07/04 06:53:35;;;;;;;6.75;0.80;;;;;;;;;;5325057;28;20281;-68
2022/07/04 06:56:06;;;;;;;4.15;0.70;;;;;;;;;;5325172;28;20138;-67
2022/07/04 06:58:37;;;;;;;2.50;0.63;;;;;;;;;;5325454;28;20573;-68
2022/07/04 07:01:09;;;;;;;1.98;0.50;;;;;;;;;;5324325;28;20313;-67
2022/07/04 07:03:40;;;;;;;3.90;0.60;;;;;;;;;;5324708;28;20294;-68
2022/07/04 07:06:11;;;;;;;2.72;0.60;;;;;;;;;;5324473;28;20035;-67
2022/07/04 07:08:42;;;;;;;5.63;1.30;;;;;;;;;;5325038;28;20265;-67
2022/07/04 07:11:13;;;;;;;8.27;5.45;;;;;;;;;;5324966;28;20261;-68
2022/07/04 07:13:50;;;;;;;6.82;3.88;;;;;;;;;;5324478;28;20034;-67
2022/07/04 07:16:22;;;;;;;7.13;2.00;;;;;;;;;;5324617;28;20035;-68
2022/07/04 07:18:53;;;;;;;3.40;0.60;;;;;;;;;;5325440;28;20044;-67
2022/07/04 07:21:24;;;;;;;4.22;0.88;;;;;;;;;;5323933;28;20165;-68
2022/07/04 07:23:56;;;;;;;2.47;0.60;;;;;;;;;;5324815;28;20043;-68
2022/07/04 07:26:27;;;;;;;3.88;0.80;;;;;;;;;;5324555;28;20736;-68
2022/07/04 07:28:58;;;;;;;4.72;0.60;;;;;;;;;;5324675;28;20020;-66
2022/07/04 07:31:29;;;;;;;5.30;0.60;;;;;;;;;;5324217;28;20261;-66
2022/07/04 07:34:00;;;;;;;2.88;0.57;;;;;;;;;;5324106;28;20341;-68
2022/07/04 07:36:31;;;;;;;3.13;0.50;;;;;;;;;;5324103;28;20712;-67
2022/07/04 07:39:03;;;;;;;2.53;0.63;;;;;;;;;;5324056;28;20805;-67
2022/07/04 07:41:34;;;;;;;2.90;0.40;;;;;;;;;;5323913;28;20269;-68
2022/07/04 07:44:05;;;;;;;3.83;0.68;;;;;;;;;;5324444;28;20012;-69
2022/07/04 07:46:36;;;;;;;3.33;0.67;;;;;;;;;;5324261;28;20149;-69
2022/07/04 07:49:07;;;;;;;4.77;0.60;;;;;;;;;;5322750;28;20250;-68
2022/07/04 07:51:39;;;;;;;2.33;0.40;;;;;;;;;;5324363;28;20747;-69
2022/07/04 07:54:10;;;;;;;2.47;0.50;;;;;;;;;;5324170;28;20050;-69
2022/07/04 07:56:41;;;;;;;2.63;0.35;;;;;;;;;;5323659;28;20413;-67
2022/07/04 07:59:12;;;;;;;2.92;0.50;;;;;;;;;;5324171;28;20016;-66
2022/07/04 08:01:43;;;;;;;3.55;0.50;;;;;;;;;;5324427;28;20015;-68
2022/07/04 08:07:05;;;;;;;1.88;0.50;;;;;;;;;;5324062;28;20249;-68
2022/07/04 08:09:37;;;;;;;3.05;0.43;;;;;;;;;;5323291;28;20055;-68
2022/07/04 08:12:09;;;;;;;3.05;0.50;;;;;;;;;;5323929;28;20077;-68
2022/07/04 08:14:40;;;;;;;1.55;0.30;;;;;;;;;;5323815;28;20080;-68
2022/07/04 08:17:12;;;;;;;5.07;0.80;;;;;;;;;;5323153;28;20019;-69
2022/07/04 08:19:43;;;;;;;2.33;0.30;;;;;;;;;;5323385;28;20392;-69
2022/07/04 08:22:14;;;;;;;3.10;0.50;;;;;;;;;;5323708;28;20098;-68
2022/07/04 08:24:46;;;;;;;2.75;0.30;;;;;;;;;;5323173;28;20269;-67
2022/07/04 08:27:17;;;;;;;4.35;0.40;;;;;;;;;;5323608;28;20108;-67
2022/07/04 08:29:48;;;;;;;3.15;0.70;;;;;;;;;;5323783;28;20102;-69
2022/07/04 08:32:19;;;;;;;3.13;0.40;;;;;;;;;;5323026;28;20004;-68
2022/07/04 08:34:50;;;;;;;3.57;0.40;;;;;;;;;;5323677;28;20031;-68
2022/07/04 08:37:23;;;;;;;2.42;0.30;;;;;;;;;;5322802;28;20258;-68
2022/07/04 08:39:54;;;;;;;5.35;0.60;;;;;;;;;;5323992;28;20019;-68
2022/07/04 08:42:28;;;;;;;4.72;0.65;;;;;;;;;;5323127;28;20030;-69
2022/07/04 08:45:00;;;;;;;4.18;0.70;;;;;;;;;;5322967;28;20015;-69
2022/07/04 08:47:35;;;;;;;4.63;0.32;;;;;;;;;;5323406;28;20507;-69
2022/07/04 08:50:11;;;;;;;3.42;0.40;;;;;;;;;;5323660;28;20364;-69
2022/07/04 08:52:46;;;;;;;3.85;0.32;;;;;;;;;;5323154;28;20090;-69
2022/07/04 09:01:03;;;;;;;3.10;0.20;;;;;;;;;;5327508;28;20111;-70
2022/07/04 09:03:34;;;;;;;3.45;0.20;;;;;;;;;;5327567;28;20065;-70
2022/07/04 09:06:05;;;;;;;6.30;0.30;;;;;;;;;;5326988;28;20024;-70
2022/07/04 09:08:37;;;;;;;2.03;0.30;;;;;;;;;;5327408;28;20268;-70
2022/07/04 09:11:08;;;;;;;2.92;0.30;;;;;;;;;;5327761;28;20751;-70
2022/07/04 09:13:40;;;;;;;2.53;0.30;;;;;;;;;;5326999;28;20098;-71
2022/07/04 09:16:11;;;;;;;3.95;0.20;;;;;;;;;;5327292;28;20437;-70
2022/07/04 09:18:42;;;;;;;3.27;0.40;;;;;;;;;;5327161;28;20035;-70
2022/07/04 09:21:13;;;;;;;4.10;0.40;;;;;;;;;;5327061;28;20466;-71
2022/07/04 09:23:44;;;;;;;1.55;0.30;;;;;;;;;;5327241;28;20024;-71
2022/07/04 09:26:17;;;;;;;5.82;0.55;;;;;;;;;;5327384;28;20027;-70
2022/07/04 09:28:51;;;;;;;3.25;0.35;;;;;;;;;;5326589;28;20024;-70
2022/07/04 09:31:23;;;;;;;3.38;0.25;;;;;;;;;;5326798;28;20015;-71
2022/07/04 09:34:05;;;;;;;2.03;0.30;;;;;;;;;;5327173;28;20023;-71
2022/07/04 09:36:41;;;;;;;3.92;0.30;;;;;;;;;;5326795;28;20178;-71
2022/07/04 09:39:15;;;;;;;1.33;0.30;;;;;;;;;;5327122;28;20028;-69
2022/07/04 09:42:02;;;;;;;2.38;0.30;;;;;;;;;;5326389;28;20019;-71
2022/07/04 09:44:33;;;;;;;3.22;0.35;;;;;;;;;;5326623;28;20129;-71
2022/07/04 09:47:19;;;;;;;1.63;0.30;;;;;;;;;;5326775;28;20526;-71
2022/07/04 09:50:04;;;;;;;2.17;0.30;;;;;;;;;;5326603;28;20026;-71
2022/07/04 09:52:45;;;;;;;1.80;0.30;;;;;;;;;;5326467;28;20058;-70
2022/07/04 09:55:27;;;;;;;3.45;0.30;;;;;;;;;;5325959;28;20031;-70
2022/07/04 09:58:00;;;;;;;2.17;0.32;;;;;;;;;;5326752;28;20090;-71
2022/07/04 10:00:32;;;;;;;1.67;0.22;;;;;;;;;;5326417;28;20031;-70
2022/07/04 10:03:22;;;;;;;2.53;0.20;;;;;;;;;;5326272;28;20015;-71
2022/07/04 10:06:09;;;;;;;3.95;0.30;;;;;;;;;;5326445;28;20102;-70
2022/07/04 10:08:41;;;;;;;4.65;0.35;;;;;;;;;;5326203;28;20024;-70
2022/07/04 10:11:12;;;;;;;5.00;0.50;;;;;;;;;;5324776;28;20409;-70
2022/07/04 10:13:43;;;;;;;2.30;0.37;;;;;;;;;;5326219;28;20019;-70
2022/07/04 10:16:15;;;;;;;6.47;0.50;;;;;;;;;;5325466;27;20372;-70
2022/07/04 10:18:47;;;;;;;2.78;0.30;;;;;;;;;;5325703;28;20047;-69
2022/07/04 10:21:18;;;;;;;2.47;0.30;;;;;;;;;;5322162;28;20023;-69
2022/07/04 10:23:50;;;;;;;2.10;0.30;;;;;;;;;;5325632;28;20019;-70
2022/07/04 10:26:24;;;;;;;2.15;0.30;;;;;;;;;;5325381;28;20050;-70
2022/07/04 10:28:56;;;;;;;2.08;0.30;;;;;;;;;;5326268;28;20051;-70
2022/07/04 10:31:28;;;;;;;5.57;0.40;;;;;;;;;;5324313;28;20077;-70
2022/07/04 10:33:59;;;;;;;1.58;0.30;;;;;;;;;;5325534;28;20023;-71
2022/07/04 10:36:31;;;;;;;3.42;0.65;;;;;;;;;;5325347;28;20034;-70
2022/07/04 10:39:03;;;;;;;2.85;0.40;;;;;;;;;;5324823;28;20027;-70
2022/07/04 10:41:34;;;;;;;2.63;0.40;;;;;;;;;;5325268;28;20016;-70
2022/07/04 10:44:15;;;;;;;4.30;0.30;;;;;;;;;;5325035;28;20094;-71
2022/07/04 10:46:48;;;;;;;3.45;0.32;;;;;;;;;;5325695;28;20023;-71
2022/07/04 10:49:23;;;;;;;5.15;0.30;;;;;;;;;;5325522;28;20302;-70
2022/07/04 10:52:09;;;;;;;2.53;0.38;;;;;;;;;;5325264;28;20123;-69
2022/07/04 10:54:41;;;;;;;1.75;0.30;;;;;;;;;;5325123;28;20115;-70
2022/07/04 10:57:15;;;;;;;2.25;0.35;;;;;;;;;;5325771;28;20011;-69
2022/07/04 10:59:56;;;;;;;4.50;0.40;;;;;;;;;;5325062;28;20454;-70
2022/07/04 11:02:31;;;;;;;2.15;0.40;;;;;;;;;;5324970;28;20604;-70
2022/07/04 11:05:04;;;;;;;1.70;0.30;;;;;;;;;;5324712;28;20377;-70
2022/07/04 11:07:35;;;;;;;2.20;0.35;;;;;;;;;;5325235;28;20026;-70
2022/07/04 11:10:12;;;;;;;3.50;0.50;;;;;;;;;;5325002;28;20023;-70
2022/07/04 11:12:55;;;;;;;3.10;0.35;;;;;;;;;;5324730;28;20054;-70
2022/07/04 11:15:27;;;;;;;2.33;0.30;;;;;;;;;;5324405;28;20136;-70
2022/07/04 11:18:08;;;;;;;5.13;0.43;;;;;;;;;;5325617;28;20023;-69
2022/07/04 11:20:43;;;;;;;2.42;0.30;;;;;;;;;;5324486;28;20055;-70
2022/07/04 11:23:15;;;;;;;3.38;0.50;;;;;;;;;;5324789;28;20015;-70
2022/07/04 11:25:52;;;;;;;3.65;0.40;;;;;;;;;;5324909;28;20027;-70
2022/07/04 11:28:24;;;;;;;3.08;0.30;;;;;;;;;;5324316;28;20012;-69
2022/07/04 11:31:00;;;;;;;2.17;0.50;;;;;;;;;;5325054;28;20135;-69
2022/07/04 11:33:32;;;;;;;2.05;0.43;;;;;;;;;;5324371;28;20038;-68
2022/07/04 11:36:07;;;;;;;3.88;0.38;;;;;;;;;;5324270;28;20028;-68
2022/07/04 11:38:42;;;;;;;2.60;0.40;;;;;;;;;;5324728;28;20160;-68
2022/07/04 11:47:15;;;;;;;2.90;0.40;;;;;;;;;;5325040;28;20032;-69
2022/07/04 11:49:51;;;;;;;3.30;0.65;;;;;;;;;;5324238;28;20032;-69
2022/07/04 11:52:26;;;;;;;5.43;0.70;;;;;;;;;;5324043;28;20015;-69
2022/07/04 11:54:57;;;;;;;4.88;0.90;;;;;;;;;;5323870;28;20035;-69
2022/07/04 11:57:30;;;;;;;3.70;0.43;;;;;;;;;;5323730;28;20094;-70
2022/07/04 12:00:04;;;;;;;3.90;0.50;;;;;;;;;;5324381;28;20051;-70
2022/07/04 12:02:35;;;;;;;3.58;0.40;;;;;;;;;;5323826;28;20026;-70
2022/07/04 12:05:08;;;;;;;4.28;0.80;;;;;;;;;;5323876;28;20023;-70
2022/07/04 12:07:40;;;;;;;4.05;0.60;;;;;;;;;;5323928;28;20106;-70
2022/07/04 12:10:15;;;;;;;2.50;0.65;;;;;;;;;;5319443;28;20174;-70
2022/07/04 12:12:55;;;;;;;3.53;0.73;;;;;;;;;;5323323;27;20035;-70
2022/07/04 12:15:35;;;;;;;5.60;0.85;;;;;;;;;;5323152;28;20071;-69
2022/07/04 12:18:17;;;;;;;5.35;0.82;;;;;;;;;;5323570;28;20050;-69
2022/07/04 12:20:49;;;;;;;5.43;0.93;;;;;;;;;;5323868;28;20039;-69
2022/07/04 12:23:21;;;;;;;6.72;1.08;;;;;;;;;;5322354;28;20008;-68
2022/07/04 12:25:52;;;;;;;5.47;0.80;;;;;;;;;;5323179;28;20037;-69
2022/07/04 12:28:24;;;;;;;6.35;0.90;;;;;;;;;;5323411;28;20019;-69
2022/07/04 12:30:57;;;;;;;3.88;0.60;;;;;;;;;;5323430;28;20047;-69
2022/07/04 12:33:28;;;;;;;3.75;0.50;;;;;;;;;;5322172;28;20106;-69
2022/07/04 12:36:01;;;;;;;4.22;0.50;;;;;;;;;;5323082;28;20126;-69
2022/07/04 12:38:36;;;;;;;2.20;0.50;;;;;;;;;;5323222;28;20028;-69
2022/07/04 12:41:11;;;;;;;4.57;0.70;;;;;;;;;;5323620;28;20110;-69
2022/07/04 12:43:42;;;;;;;2.78;0.73;;;;;;;;;;5323302;28;20043;-70
2022/07/04 12:46:28;;;;;;;4.53;0.52;;;;;;;;;;5323458;28;20055;-70
2022/07/04 12:49:00;;;;;;;5.47;0.45;;;;;;;;;;5323592;28;20023;-70
2022/07/04 12:51:33;;;;;;;5.35;0.75;;;;;;;;;;5322856;28;20015;-69
2022/07/04 12:54:08;;;;;;;3.03;0.50;;;;;;;;;;5322996;28;20023;-68
2022/07/04 12:56:41;;;;;;;1.88;0.40;;;;;;;;;;5323575;28;20076;-71
2022/07/04 12:59:13;;;;;;;3.00;0.45;;;;;;;;;;5323040;28;20019;-70
2022/07/04 13:01:45;;;;;;;1.75;0.40;;;;;;;;;;5323447;28;20019;-69
2022/07/04 13:04:16;;;;;;;5.50;0.70;;;;;;;;;;5323279;28;20462;-69
2022/07/04 13:06:48;;;;;;;4.05;0.50;;;;;;;;;;5323136;28;20507;-69
2022/07/04 13:09:19;;;;;;;2.72;0.50;;;;;;;;;;5323063;28;20047;-70
2022/07/04 13:14:40;;;;;;;7.30;0.75;;;;;;;;;;5323400;28;20285;-69
2022/07/04 13:17:11;;;;;;;8.07;1.17;;;;;;;;;;5323632;28;20028;-69
2022/07/04 13:19:42;;;;;;;8.70;1.02;;;;;;;;;;5322428;28;20346;-69
2022/07/04 13:22:13;;;;;;;9.13;0.77;;;;;;;;;;5322854;28;20027;-69
2022/07/04 13:24:45;;;;;;;3.15;0.60;;;;;;;;;;5323220;28;20065;-69
2022/07/04 13:27:17;;;;;;;3.47;0.50;;;;;;;;;;5322930;28;20106;-69
2022/07/04 13:29:48;;;;;;;4.97;1.10;;;;;;;;;;5323094;28;20023;-69
2022/07/04 13:32:19;;;;;;;2.88;0.55;;;;;;;;;;5322765;28;20016;-69
2022/07/04 13:34:51;;;;;;;2.60;0.50;;;;;;;;;;5322606;28;20020;-68
2022/07/04 13:37:22;;;;;;;3.67;0.50;;;;;;;;;;5322020;28;20408;-71
2022/07/04 13:39:54;;;;;;;2.28;0.50;;;;;;;;;;5322222;28;20219;-70
2022/07/04 13:45:18;;;;;;;2.78;0.80;;;;;;;;;;5323205;28;20053;-70
2022/07/04 13:47:49;;;;;;;3.28;0.40;;;;;;;;;;5324718;28;20471;-69
2022/07/04 13:50:21;;;;;;;3.28;0.57;;;;;;;;;;5325839;28;20030;-70
2022/07/04 13:52:52;;;;;;;4.97;0.70;;;;;;;;;;5327095;28;20474;-70
2022/07/04 13:55:23;;;;;;;2.70;0.43;;;;;;;;;;5325844;28;20534;-70
2022/07/04 13:57:54;;;;;;;3.00;0.40;;;;;;;;;;5325209;28;20023;-70
2022/07/04 14:00:25;;;;;;;7.20;0.98;;;;;;;;;;5325536;28;20301;-69
2022/07/04 14:02:57;;;;;;;2.40;0.40;;;;;;;;;;5326061;28;20011;-71
2022/07/04 14:05:28;;;;;;;4.40;0.80;;;;;;;;;;5325969;28;20016;-70
2022/07/04 14:07:59;;;;;;;3.53;0.40;;;;;;;;;;5325904;28;20269;-70
2022/07/04 14:10:30;;;;;;;2.33;0.50;;;;;;;;;;5326129;28;20288;-70
2022/07/04 14:13:02;;;;;;;1.65;0.40;;;;;;;;;;5326524;28;20281;-70
2022/07/04 14:15:33;;;;;;;4.07;0.40;;;;;;;;;;5325498;28;20092;-70
2022/07/04 14:18:07;;;;;;;4.07;0.43;;;;;;;;;;5325798;28;20121;-70
2022/07/04 14:20:38;;;;;;;5.40;0.73;;;;;;;;;;5326008;28;20056;-69
2022/07/04 14:23:09;;;;;;;2.53;0.50;;;;;;;;;;5325527;28;20031;-68
2022/07/04 14:25:40;;;;;;;2.47;0.57;;;;;;;;;;5326031;28;20624;-69
2022/07/04 14:28:12;;;;;;;4.37;0.50;;;;;;;;;;5326154;28;20079;-69
2022/07/04 14:30:43;;;;;;;7.22;0.90;;;;;;;;;;5325611;28;20031;-69
2022/07/04 14:33:14;;;;;;;1.73;0.38;;;;;;;;;;5325556;28;20227;-69
2022/07/04 14:35:45;;;;;;;4.57;0.50;;;;;;;;;;5326035;28;20024;-68
2022/07/04 14:38:16;;;;;;;1.88;0.43;;;;;;;;;;5325359;28;20011;-68
2022/07/04 14:40:49;;;;;;;2.40;0.45;;;;;;;;;;5325790;28;20351;-68
2022/07/04 14:43:22;;;;;;;4.38;0.70;;;;;;;;;;5324987;28;20799;-69
2022/07/04 14:45:54;;;;;;;2.40;0.50;;;;;;;;;;5325900;28;20382;-68
2022/07/04 14:48:25;;;;;;;4.38;0.80;;;;;;;;;;5325707;28;20020;-68
2022/07/04 14:50:56;;;;;;;4.30;0.63;;;;;;;;;;5325526;28;20024;-68
2022/07/04 14:53:27;;;;;;;3.07;0.40;;;;;;;;;;5325266;28;20024;-67
2022/07/04 14:55:59;;;;;;;4.93;0.63;;;;;;;;;;5325883;28;20023;-66
2022/07/04 14:58:30;;;;;;;2.05;0.40;;;;;;;;;;5324337;28;20023;-66
2022/07/04 15:01:01;;;;;;;3.43;0.60;;;;;;;;;;5325520;28;20382;-68
2022/07/04 15:03:32;;;;;;;4.82;0.50;;;;;;;;;;5325418;28;20316;-68
2022/07/04 15:06:04;;;;;;;4.33;0.73;;;;;;;;;;5324809;28;20149;-68
2022/07/04 15:08:35;;;;;;;6.37;0.63;;;;;;;;;;5325130;28;20786;-67
2022/07/04 15:11:06;;;;;;;2.90;0.50;;;;;;;;;;5325400;28;20314;-68
2022/07/04 15:13:37;;;;;;;6.22;0.60;;;;;;;;;;5324800;28;20092;-68
2022/07/04 15:16:08;;;;;;;3.13;0.63;;;;;;;;;;5325214;28;20027;-68
2022/07/04 15:18:40;;;;;;;2.47;0.70;;;;;;;;;;5324494;28;20048;-68
2022/07/04 15:24:10;;;;;;;4.47;0.70;;;;;;;;;;5325127;28;20027;-67
2022/07/04 15:26:43;;;;;;;5.32;0.90;;;;;;;;;;5324603;28;20054;-67
2022/07/04 15:29:14;;;;;;;4.70;0.75;;;;;;;;;;5324796;28;20049;-67
2022/07/04 15:31:46;;;;;;;3.45;0.68;;;;;;;;;;5324872;28;20019;-67
2022/07/04 15:34:18;;;;;;;4.47;0.68;;;;;;;;;;5324389;28;20027;-67
2022/07/04 15:36:49;;;;;;;4.28;1.00;;;;;;;;;;5324955;28;20055;-67
2022/07/04 15:39:20;;;;;;;5.22;0.77;;;;;;;;;;5324155;28;20020;-67
2022/07/04 15:41:51;;;;;;;5.63;0.60;;;;;;;;;;5324781;28;20023;-68